Terminal Aerodrome Forecast
Issued by NWS

Home | Current Version | Previous Version | Graphics & Text | Print | Product List | Glossary Off
Versions: 1 2 3 4 5 6 7 8 9 10 11 12 13

000
FTUS43 KICT 222322
TAFHUT
TAF
KHUT 222322Z 2300/2324 20010KT P6SM FEW250
     FM231200 31008KT P6SM FEW250
     FM232200 24004KT P6SM FEW250=

USA.gov is the U.S. government's official web portal to all federal, state and local government web resources and services.